Time;durP1;ratioP1;P1;durP2;ratioP2;P2;SDS_P1;SDS_P2;PMS_P1;PMS_P2;Temp;Humidity;BMP_temperature;BMP_pressure;BME280_temperature;BME280_humidity;BME280_pressure;Samples;Min_cycle;Max_cycle;Signal;HPM_P1;HPM_P2
2023/10/11 04:05:36;;;;;;;0.30;0.30;;;11.70;99.90;;;;;;5858209;22;20280;-60
2023/10/11 04:08:07;;;;;;;0.30;0.30;;;11.70;99.90;;;;;;5054927;28;20533;-60
2023/10/11 04:10:39;;;;;;;0.30;0.30;;;11.70;99.90;;;;;;5055221;28;20171;-60
2023/10/11 04:13:14;;;;;;;0.30;0.30;;;11.70;99.90;;;;;;5055120;28;20247;-60
2023/10/11 04:15:49;;;;;;;0.30;0.30;;;11.70;99.90;;;;;;5064762;28;20428;-60
2023/10/11 04:21:13;;;;;;;0.30;0.20;;;11.80;99.90;;;;;;5055141;28;20406;-60
2023/10/11 04:23:39;;;;;;;0.30;0.20;;;11.80;99.90;;;;;;5055422;28;20254;-61
2023/10/11 04:26:08;;;;;;;0.40;0.40;;;11.80;99.90;;;;;;5074884;28;20435;-60
2023/10/11 04:28:34;;;;;;;0.30;0.30;;;11.80;99.90;;;;;;5075051;28;20177;-60
2023/10/11 04:33:50;;;;;;;0.30;0.20;;;11.80;99.90;;;;;;5074489;28;20232;-60
2023/10/11 04:36:20;;;;;;;1.70;0.93;;;11.80;99.90;;;;;;5073541;28;20181;-60
2023/10/11 04:38:47;;;;;;;0.30;0.20;;;11.80;99.90;;;;;;5074535;28;20228;-60
2023/10/11 04:41:19;;;;;;;0.30;0.30;;;11.80;99.90;;;;;;5056595;28;20171;-60
2023/10/11 04:43:51;;;;;;;0.30;0.30;;;11.80;99.90;;;;;;5074448;28;20571;-60
2023/10/11 04:46:18;;;;;;;0.30;0.30;;;11.80;99.90;;;;;;5074506;28;20328;-60
2023/10/11 04:48:45;;;;;;;0.30;0.30;;;11.80;99.90;;;;;;5074527;28;20166;-61
2023/10/11 04:59:07;;;;;;;0.30;0.30;;;11.80;99.90;;;;;;5074489;28;20171;-60
2023/10/11 05:01:58;;;;;;;0.30;0.30;;;11.80;99.90;;;;;;5074095;28;20758;-61
2023/10/11 05:04:28;;;;;;;0.30;0.20;;;11.70;99.90;;;;;;5073691;28;20245;-60
2023/10/11 05:06:57;;;;;;;0.30;0.30;;;11.70;99.90;;;;;;5055919;28;20185;-61
2023/10/11 05:09:37;;;;;;;0.30;0.28;;;11.80;99.90;;;;;;5073873;28;20411;-60
2023/10/11 05:14:29;;;;;;;0.30;0.20;;;11.70;99.90;;;;;;5072812;28;20428;-61
2023/10/11 05:16:59;;;;;;;0.40;0.40;;;11.70;99.90;;;;;;5073474;28;20979;-61
2023/10/11 05:19:34;;;;;;;0.30;0.20;;;11.70;99.90;;;;;;5055171;28;20450;-60
2023/10/11 05:22:03;;;;;;;0.30;0.30;;;11.70;99.90;;;;;;5073818;28;20417;-60
2023/10/11 05:24:44;;;;;;;0.40;0.40;;;11.60;99.90;;;;;;5055490;28;20180;-61
2023/10/11 05:27:36;;;;;;;0.30;0.30;;;11.60;99.90;;;;;;5073240;28;20431;-61
2023/10/11 05:51:31;;;;;;;0.30;0.30;;;11.80;99.90;;;;;;5073253;28;20234;-60
2023/10/11 05:53:59;;;;;;;0.30;0.20;;;11.70;99.90;;;;;;5072888;28;21076;-60
2023/10/11 05:56:26;;;;;;;0.30;0.30;;;11.70;99.90;;;;;;5072952;28;20261;-60
2023/10/11 05:58:53;;;;;;;0.30;0.30;;;11.70;99.90;;;;;;5055365;28;20759;-60
2023/10/11 06:01:23;;;;;;;0.30;0.30;;;11.80;99.90;;;;;;5073392;28;20411;-62
2023/10/11 06:03:55;;;;;;;0.30;0.20;;;11.80;99.90;;;;;;5072703;28;20183;-63
2023/10/11 06:06:27;;;;;;;0.30;0.30;;;11.80;99.90;;;;;;5073350;28;20973;-62
2023/10/11 06:08:54;;;;;;;0.30;0.30;;;11.80;99.90;;;;;;5073043;28;20197;-62
2023/10/11 06:11:20;;;;;;;1.47;0.70;;;11.80;99.90;;;;;;5073036;28;20179;-61
2023/10/11 06:13:48;;;;;;;0.30;0.30;;;11.80;99.90;;;;;;5072465;28;20455;-61
2023/10/11 06:16:14;;;;;;;0.40;0.40;;;11.90;99.90;;;;;;5073392;28;20225;-61
2023/10/11 06:18:42;;;;;;;0.30;0.20;;;11.90;99.90;;;;;;5071737;28;20967;-63
2023/10/11 06:21:19;;;;;;;0.30;0.20;;;12.00;99.90;;;;;;5072751;28;20417;-62
2023/10/11 06:23:45;;;;;;;0.30;0.30;;;12.10;99.90;;;;;;5054788;28;20952;-60
2023/10/11 06:29:06;;;;;;;0.30;0.27;;;12.40;99.90;;;;;;5049557;28;20472;-61
2023/10/11 06:31:39;;;;;;;0.30;0.30;;;12.60;99.90;;;;;;5073125;28;20407;-62
2023/10/11 06:34:25;;;;;;;0.30;0.30;;;12.80;99.90;;;;;;5054731;28;20818;-66
2023/10/11 06:36:53;;;;;;;1.90;1.80;;;13.00;99.90;;;;;;5073086;28;20430;-62
2023/10/11 06:42:21;;;;;;;0.40;0.40;;;13.40;99.90;;;;;;5046018;28;20872;-62
2023/10/11 06:44:50;;;;;;;0.30;0.30;;;13.60;99.90;;;;;;5076836;28;20794;-62
2023/10/11 06:47:18;;;;;;;0.30;0.30;;;13.80;99.90;;;;;;5077203;28;20455;-60
2023/10/11 06:49:44;;;;;;;0.30;0.30;;;13.80;99.90;;;;;;5077235;28;20422;-63
2023/10/11 06:52:19;;;;;;;0.30;0.20;;;13.90;99.90;;;;;;5076952;28;20432;-61
2023/10/11 06:54:46;;;;;;;0.30;0.30;;;14.00;99.90;;;;;;5076544;28;20401;-63
2023/10/11 06:57:21;;;;;;;0.30;0.30;;;14.20;99.90;;;;;;5076851;28;20507;-62
2023/10/11 06:59:51;;;;;;;0.30;0.30;;;14.50;99.90;;;;;;5076461;28;20398;-63
2023/10/11 07:02:31;;;;;;;0.30;0.30;;;14.90;99.90;;;;;;5076933;28;20418;-62
2023/10/11 07:05:08;;;;;;;0.30;0.30;;;15.40;99.90;;;;;;5076473;28;20441;-62
2023/10/11 07:07:34;;;;;;;0.33;0.33;;;15.60;99.90;;;;;;5059922;28;20467;-61
2023/10/11 07:10:27;;;;;;;0.30;0.20;;;15.80;99.90;;;;;;5076586;28;20414;-63
2023/10/11 07:13:03;;;;;;;0.40;0.40;;;16.10;99.90;;;;;;5076330;28;20462;-62
2023/10/11 07:15:44;;;;;;;0.40;0.40;;;16.60;99.90;;;;;;5076449;28;20499;-62
2023/10/11 07:18:24;;;;;;;0.77;0.50;;;17.30;99.90;;;;;;5076196;28;20796;-63
2023/10/11 07:21:10;;;;;;;0.30;0.30;;;18.00;99.90;;;;;;5059690;28;20753;-62
2023/10/11 07:24:40;;;;;;;0.30;0.20;;;18.60;99.90;;;;;;5076498;28;20395;-62
2023/10/11 07:29:02;;;;;;;0.30;0.30;;;20.40;99.90;;;;;;5076303;28;20421;-62
2023/10/11 07:31:33;;;;;;;0.40;0.40;;;21.30;98.30;;;;;;5076025;28;20613;-63
2023/10/11 07:34:05;;;;;;;1.23;0.30;;;22.20;97.00;;;;;;5075946;28;20459;-63
2023/10/11 07:36:31;;;;;;;0.30;0.30;;;23.20;95.80;;;;;;5076037;28;20460;-64
2023/10/11 07:39:00;;;;;;;0.40;0.40;;;24.00;94.70;;;;;;5076145;28;20412;-63
2023/10/11 07:41:28;;;;;;;1.17;0.60;;;24.80;92.90;;;;;;5075894;28;20407;-65
2023/10/11 07:43:56;;;;;;;0.50;0.50;;;25.40;90.10;;;;;;5075386;28;20525;-63
2023/10/11 07:46:22;;;;;;;0.47;0.30;;;25.90;87.50;;;;;;5075876;28;20408;-64
2023/10/11 07:48:48;;;;;;;0.30;0.30;;;26.30;87.50;;;;;;5076136;28;20492;-63
2023/10/11 07:51:14;;;;;;;0.40;0.40;;;26.80;85.80;;;;;;5075152;28;20411;-65
2023/10/11 07:53:43;;;;;;;0.30;0.20;;;27.30;84.00;;;;;;5075093;28;20429;-63
2023/10/11 07:56:10;;;;;;;0.40;0.30;;;27.80;82.00;;;;;;5075613;28;20409;-64
2023/10/11 07:58:44;;;;;;;0.97;0.80;;;28.20;78.70;;;;;;5075858;28;20461;-63
2023/10/11 08:01:16;;;;;;;0.30;0.30;;;28.30;76.80;;;;;;5075718;28;20380;-65
2023/10/11 08:03:44;;;;;;;0.43;0.43;;;28.20;75.20;;;;;;5075103;28;20393;-64
2023/10/11 08:06:12;;;;;;;0.50;0.47;;;28.30;76.80;;;;;;5040986;28;20517;-63
2023/10/11 08:08:38;;;;;;;0.50;0.50;;;28.40;76.10;;;;;;5075604;28;20390;-65
2023/10/11 08:11:18;;;;;;;1.10;1.10;;;28.70;76.10;;;;;;5075712;28;20450;-64
2023/10/11 08:13:48;;;;;;;0.60;0.60;;;29.00;74.90;;;;;;5075196;28;20432;-64
2023/10/11 08:16:17;;;;;;;0.60;0.60;;;29.30;74.10;;;;;;5075718;28;20409;-61
2023/10/11 08:18:48;;;;;;;0.70;0.70;;;29.30;73.30;;;;;;5075531;28;20399;-62
2023/10/11 08:21:15;;;;;;;0.50;0.40;;;29.40;74.00;;;;;;5075255;28;20404;-62
2023/10/11 08:23:44;;;;;;;0.30;0.30;;;29.70;73.70;;;;;;5075248;28;20782;-62
2023/10/11 08:26:14;;;;;;;0.40;0.40;;;30.20;72.30;;;;;;5075296;28;20489;-64
2023/10/11 08:28:48;;;;;;;0.57;0.40;;;30.60;69.90;;;;;;5074931;28;20482;-64
2023/10/11 08:31:35;;;;;;;0.40;0.40;;;30.70;69.20;;;;;;5075302;28;20403;-65
2023/10/11 08:34:04;;;;;;;0.30;0.30;;;30.80;68.30;;;;;;5074895;28;20458;-62
2023/10/11 08:36:33;;;;;;;0.50;0.50;;;30.80;67.50;;;;;;5074756;28;20427;-64
2023/10/11 08:39:03;;;;;;;0.80;0.80;;;31.10;68.70;;;;;;5074759;28;20407;-63
2023/10/11 08:41:30;;;;;;;0.73;0.70;;;31.20;66.60;;;;;;5074856;28;20455;-65
2023/10/11 08:43:59;;;;;;;1.30;0.83;;;31.20;66.60;;;;;;5074513;28;20541;-64
2023/10/11 08:46:31;;;;;;;0.60;0.43;;;31.20;66.30;;;;;;5074768;28;20789;-65
2023/10/11 08:49:00;;;;;;;0.70;0.70;;;31.40;66.10;;;;;;5074883;28;20407;-62
2023/10/11 08:51:36;;;;;;;0.40;0.40;;;31.60;64.80;;;;;;5074660;28;20413;-64
2023/10/11 08:54:11;;;;;;;1.40;1.40;;;31.80;64.30;;;;;;5074458;28;20450;-62
2023/10/11 08:56:43;;;;;;;0.60;0.60;;;32.20;62.90;;;;;;5074691;28;20430;-64
2023/10/11 08:59:14;;;;;;;0.97;0.97;;;32.50;62.60;;;;;;5074764;28;20442;-63
2023/10/11 09:01:45;;;;;;;0.43;0.43;;;32.60;62.90;;;;;;5074454;28;20778;-64
2023/10/11 09:04:11;;;;;;;0.40;0.30;;;32.80;61.80;;;;;;5056079;28;20451;-63
2023/10/11 09:06:42;;;;;;;0.40;0.40;;;33.10;60.10;;;;;;5074167;28;20458;-63
2023/10/11 09:09:14;;;;;;;0.47;0.47;;;33.30;60.10;;;;;;5074164;28;20472;-61
2023/10/11 09:11:52;;;;;;;0.40;0.40;;;33.50;59.90;;;;;;5074454;28;20407;-65
2023/10/11 09:14:22;;;;;;;1.27;0.70;;;33.60;59.50;;;;;;5073873;28;20446;-65
2023/10/11 09:16:50;;;;;;;0.40;0.40;;;33.80;58.80;;;;;;5074293;28;20868;-64
2023/10/11 09:19:19;;;;;;;0.50;0.50;;;33.90;58.60;;;;;;5074254;28;20792;-63
2023/10/11 09:22:18;;;;;;;0.67;0.67;;;34.30;58.30;;;;;;5074006;28;20400;-64
2023/10/11 09:24:44;;;;;;;0.93;0.93;;;34.30;57.70;;;;;;5073719;28;20419;-65
2023/10/11 09:27:18;;;;;;;0.30;0.30;;;34.40;57.30;;;;;;5074102;28;20411;-63
2023/10/11 09:29:48;;;;;;;0.40;0.40;;;34.60;57.60;;;;;;5073985;28;20478;-64
2023/10/11 09:32:19;;;;;;;0.40;0.40;;;35.00;56.30;;;;;;5074036;28;20427;-63
2023/10/11 09:34:46;;;;;;;0.70;0.70;;;35.30;55.60;;;;;;5073664;28;20395;-65
2023/10/11 09:37:12;;;;;;;0.40;0.40;;;35.20;55.90;;;;;;5073762;28;20411;-64
2023/10/11 09:39:38;;;;;;;0.43;0.43;;;35.10;56.90;;;;;;5073914;28;20399;-64
2023/10/11 09:42:05;;;;;;;3.50;1.03;;;35.10;56.10;;;;;;5073744;28;20403;-64
2023/10/11 09:44:37;;;;;;;0.93;0.50;;;35.20;55.90;;;;;;5073574;28;20483;-63
2023/10/11 09:47:05;;;;;;;0.40;0.40;;;35.40;55.10;;;;;;5073822;28;20415;-63
2023/10/11 09:49:41;;;;;;;0.67;0.67;;;35.50;55.40;;;;;;5073561;28;20931;-64
2023/10/11 09:52:07;;;;;;;0.57;0.57;;;35.50;55.50;;;;;;5073782;28;20435;-63
2023/10/11 09:54:37;;;;;;;0.67;0.67;;;35.50;54.60;;;;;;5073235;28;20471;-64
2023/10/11 09:57:30;;;;;;;0.50;0.50;;;35.50;55.30;;;;;;5074226;28;20403;-64
2023/10/11 10:00:12;;;;;;;0.40;0.40;;;35.60;54.40;;;;;;5073721;28;20430;-63
2023/10/11 10:02:39;;;;;;;0.70;0.70;;;35.70;54.30;;;;;;5073571;28;20451;-63
2023/10/11 10:05:05;;;;;;;0.30;0.30;;;35.70;54.70;;;;;;5073048;28;20467;-64
2023/10/11 10:07:44;;;;;;;1.53;0.97;;;35.60;54.80;;;;;;5073247;28;20475;-64
2023/10/11 10:10:13;;;;;;;0.50;0.50;;;35.40;55.30;;;;;;5073624;28;20513;-63
2023/10/11 10:12:58;;;;;;;0.57;0.57;;;35.30;54.30;;;;;;5073488;28;20419;-63
2023/10/11 10:15:32;;;;;;;0.40;0.40;;;35.20;54.20;;;;;;5072317;28;20427;-62
2023/10/11 10:18:03;;;;;;;0.50;0.50;;;35.00;53.80;;;;;;5073538;28;20488;-64
2023/10/11 10:20:34;;;;;;;0.73;0.73;;;34.80;53.50;;;;;;5073218;28;20920;-63
2023/10/11 10:23:15;;;;;;;0.50;0.50;;;34.60;54.60;;;;;;5073347;28;20463;-63
2023/10/11 10:26:09;;;;;;;0.33;0.33;;;34.10;54.50;;;;;;5072961;28;20429;-64
2023/10/11 10:28:42;;;;;;;1.23;0.43;;;33.80;55.10;;;;;;5042847;28;20436;-64
2023/10/11 10:31:16;;;;;;;0.60;0.60;;;33.70;55.30;;;;;;5073520;28;20396;-64
2023/10/11 10:33:50;;;;;;;0.40;0.40;;;33.80;55.60;;;;;;5073108;28;20743;-64
2023/10/11 10:36:21;;;;;;;0.30;0.30;;;33.90;55.20;;;;;;5073263;28;20452;-64
2023/10/11 10:39:47;;;;;;;0.50;0.50;;;33.90;55.10;;;;;;5073209;28;20510;-64
2023/10/11 10:42:15;;;;;;;0.30;0.30;;;33.90;55.30;;;;;;5062393;28;20926;-63
2023/10/11 10:44:54;;;;;;;0.50;0.50;;;33.90;55.50;;;;;;5072603;28;20431;-62
2023/10/11 10:47:25;;;;;;;0.50;0.40;;;33.80;55.70;;;;;;5073222;28;20378;-63
2023/10/11 10:49:53;;;;;;;0.50;0.50;;;33.60;56.00;;;;;;5072862;28;20410;-64
2023/10/11 10:52:21;;;;;;;0.40;0.40;;;33.50;56.10;;;;;;5073064;28;21004;-64
2023/10/11 10:55:01;;;;;;;1.10;1.10;;;33.40;56.10;;;;;;5055013;28;20381;-64
2023/10/11 10:57:37;;;;;;;0.30;0.30;;;33.30;56.20;;;;;;5072789;28;20431;-62
2023/10/11 11:00:05;;;;;;;0.30;0.30;;;33.30;56.40;;;;;;5073032;28;20384;-64
2023/10/11 11:02:35;;;;;;;0.37;0.37;;;33.10;55.90;;;;;;5072829;28;20438;-62
2023/10/11 11:05:09;;;;;;;0.50;0.50;;;32.40;55.80;;;;;;5072541;28;20752;-63
2023/10/11 11:07:35;;;;;;;0.30;0.30;;;31.70;57.30;;;;;;5072781;28;20402;-62
2023/10/11 11:10:01;;;;;;;0.40;0.40;;;31.10;58.30;;;;;;5072824;28;20388;-63
2023/10/11 11:12:28;;;;;;;0.83;0.40;;;30.60;59.80;;;;;;5072712;28;20216;-62
2023/10/11 11:14:56;;;;;;;0.40;0.40;;;30.10;60.30;;;;;;5072441;28;20907;-64
2023/10/11 11:17:23;;;;;;;0.70;0.43;;;29.70;61.00;;;;;;5072854;28;20487;-62
2023/10/11 11:20:51;;;;;;;0.40;0.40;;;29.30;60.80;;;;;;5072825;28;20415;-64
2023/10/11 11:22:56;;;;;;;0.40;0.40;;;29.00;61.00;;;;;;5059235;28;20461;-63
2023/10/11 11:28:17;;;;;;;0.40;0.40;;;28.50;61.60;;;;;;5076279;28;20452;-64
2023/10/11 11:31:04;;;;;;;0.37;0.37;;;28.30;63.80;;;;;;5076166;28;20403;-63
2023/10/11 11:33:36;;;;;;;1.27;0.70;;;28.10;65.00;;;;;;5076179;28;20451;-64
2023/10/11 11:36:11;;;;;;;0.50;0.50;;;27.90;63.90;;;;;;5076200;28;20436;-62
2023/10/11 11:38:45;;;;;;;0.30;0.30;;;27.70;64.70;;;;;;5076215;28;20428;-62
2023/10/11 11:41:16;;;;;;;0.40;0.40;;;27.60;65.90;;;;;;5076149;28;20422;-63
2023/10/11 11:43:42;;;;;;;0.33;0.33;;;27.50;65.40;;;;;;5075747;28;20460;-63
2023/10/11 11:46:09;;;;;;;0.30;0.30;;;27.50;66.50;;;;;;5075978;28;20429;-64
2023/10/11 11:48:41;;;;;;;0.30;0.20;;;27.40;67.30;;;;;;5076013;28;20421;-63
2023/10/11 11:51:16;;;;;;;0.50;0.50;;;27.40;66.00;;;;;;5076040;28;20410;-64
2023/10/11 11:53:43;;;;;;;0.93;0.40;;;27.30;66.30;;;;;;5075678;28;20903;-65
2023/10/11 11:56:11;;;;;;;0.40;0.40;;;27.30;66.20;;;;;;5075711;28;20437;-64
2023/10/11 11:58:39;;;;;;;0.93;0.93;;;27.20;66.20;;;;;;5075410;28;20413;-62
2023/10/11 12:01:15;;;;;;;0.57;0.57;;;27.20;67.00;;;;;;5075626;28;20420;-64
2023/10/11 12:03:42;;;;;;;0.30;0.20;;;27.20;67.30;;;;;;5075590;28;20531;-64
2023/10/11 12:06:21;;;;;;;0.33;0.33;;;27.20;67.60;;;;;;5075449;28;20415;-64
2023/10/11 12:08:57;;;;;;;0.57;0.57;;;27.20;67.50;;;;;;5075547;28;20408;-60
2023/10/11 12:11:28;;;;;;;0.60;0.60;;;27.20;67.10;;;;;;5075608;28;20495;-64
2023/10/11 12:13:56;;;;;;;0.30;0.20;;;27.20;67.30;;;;;;5075514;28;20421;-62
2023/10/11 12:16:25;;;;;;;0.30;0.30;;;27.10;67.90;;;;;;5075140;28;20432;-63
2023/10/11 12:18:58;;;;;;;0.30;0.30;;;27.10;69.10;;;;;;5075288;28;20428;-62
2023/10/11 12:21:28;;;;;;;0.30;0.30;;;27.10;69.00;;;;;;5074446;28;20400;-64
2023/10/11 12:23:54;;;;;;;0.77;0.77;;;27.10;69.80;;;;;;5074085;28;20540;-62
2023/10/11 12:26:20;;;;;;;0.30;0.30;;;27.10;69.10;;;;;;5074528;28;20516;-64
2023/10/11 12:28:47;;;;;;;0.30;0.30;;;27.10;69.30;;;;;;5074985;28;20249;-61
2023/10/11 12:31:13;;;;;;;0.30;0.27;;;27.10;69.60;;;;;;5074873;28;20397;-64
2023/10/11 12:33:39;;;;;;;0.30;0.30;;;27.10;70.70;;;;;;5074043;28;20742;-63
2023/10/11 12:36:06;;;;;;;0.30;0.20;;;27.10;71.20;;;;;;5074588;28;20518;-66
2023/10/11 12:38:36;;;;;;;0.70;0.70;;;27.10;70.80;;;;;;5074241;28;20903;-65
2023/10/11 12:41:05;;;;;;;0.50;0.50;;;27.10;69.90;;;;;;5074937;28;20415;-61
2023/10/11 12:43:32;;;;;;;0.43;0.40;;;27.00;69.80;;;;;;5074780;28;20483;-64
2023/10/11 12:45:59;;;;;;;0.30;0.27;;;27.00;70.00;;;;;;5073613;28;20489;-64
2023/10/11 12:48:24;;;;;;;0.30;0.30;;;26.90;70.40;;;;;;5074047;28;20426;-66
2023/10/11 12:50:50;;;;;;;0.47;0.47;;;26.80;70.30;;;;;;5074481;28;20404;-63
2023/10/11 12:53:16;;;;;;;0.90;0.80;;;26.80;70.40;;;;;;5074549;28;20180;-60
2023/10/11 12:55:49;;;;;;;0.30;0.30;;;26.70;69.90;;;;;;5073368;28;20221;-61
2023/10/11 12:58:15;;;;;;;0.30;0.30;;;26.70;70.70;;;;;;5064827;28;20581;-64
2023/10/11 13:00:53;;;;;;;0.30;0.30;;;26.80;70.50;;;;;;5064662;28;20398;-65
2023/10/11 13:03:26;;;;;;;0.30;0.20;;;26.80;70.30;;;;;;5073946;28;20816;-61
2023/10/11 13:05:52;;;;;;;0.30;0.30;;;26.70;70.50;;;;;;5073574;28;20452;-62
2023/10/11 13:08:24;;;;;;;0.50;0.30;;;26.70;70.80;;;;;;5074035;28;20410;-65
2023/10/11 13:10:51;;;;;;;1.07;0.50;;;26.70;71.10;;;;;;5074310;28;20823;-61
2023/10/11 13:13:17;;;;;;;0.30;0.30;;;26.70;70.70;;;;;;5074374;28;20470;-64
2023/10/11 13:15:59;;;;;;;0.30;0.20;;;26.70;70.40;;;;;;5066511;28;20522;-62
2023/10/11 13:18:31;;;;;;;0.60;0.50;;;26.60;69.80;;;;;;5045431;28;20914;-66
2023/10/11 13:20:59;;;;;;;0.30;0.30;;;26.60;69.50;;;;;;5073540;28;20451;-64
2023/10/11 13:23:31;;;;;;;0.30;0.20;;;26.60;70.30;;;;;;5074104;28;20460;-64
2023/10/11 13:25:59;;;;;;;0.40;0.30;;;26.60;69.90;;;;;;5073164;28;20391;-65
2023/10/11 13:28:28;;;;;;;0.30;0.20;;;26.60;69.60;;;;;;5074127;28;20413;-65
2023/10/11 13:30:55;;;;;;;0.43;0.43;;;26.60;70.30;;;;;;5074654;28;20987;-66
2023/10/11 13:33:21;;;;;;;0.30;0.20;;;26.60;69.90;;;;;;5073704;28;20506;-62
2023/10/11 13:35:47;;;;;;;0.30;0.30;;;26.60;69.70;;;;;;5073057;28;20462;-61
2023/10/11 13:38:20;;;;;;;0.57;0.57;;;26.60;69.50;;;;;;5072120;28;20178;-66
2023/10/11 13:40:46;;;;;;;0.40;0.40;;;26.60;69.10;;;;;;5071776;28;20458;-64
2023/10/11 13:43:13;;;;;;;0.30;0.30;;;26.60;69.30;;;;;;5071508;28;20462;-67
2023/10/11 13:45:41;;;;;;;0.30;0.20;;;26.60;69.10;;;;;;5071244;28;20465;-62
2023/10/11 13:48:14;;;;;;;0.30;0.20;;;26.60;68.90;;;;;;5071518;28;20453;-64
2023/10/11 13:50:49;;;;;;;0.30;0.30;;;26.60;68.80;;;;;;5071113;28;20382;-62
2023/10/11 13:53:15;;;;;;;0.40;0.40;;;26.60;68.80;;;;;;5073232;28;20403;-62
2023/10/11 13:55:41;;;;;;;0.30;0.30;;;26.60;68.70;;;;;;5073076;28;20492;-66
2023/10/11 13:58:09;;;;;;;0.40;0.40;;;26.60;68.80;;;;;;5073370;28;20407;-67
2023/10/11 14:08:44;;;;;;;0.30;0.30;;;26.60;68.30;;;;;;5053634;28;20450;-62
2023/10/11 14:11:17;;;;;;;0.40;0.30;;;26.50;68.20;;;;;;5073438;28;20428;-63
2023/10/11 14:13:49;;;;;;;0.30;0.20;;;26.50;68.50;;;;;;5073181;28;20519;-66
2023/10/11 14:16:27;;;;;;;0.30;0.30;;;26.50;68.40;;;;;;5073590;28;20476;-67
2023/10/11 14:18:54;;;;;;;0.30;0.20;;;26.50;68.50;;;;;;5073405;28;20399;-62
2023/10/11 14:21:21;;;;;;;0.60;0.60;;;26.60;68.70;;;;;;5073093;28;20454;-68
2023/10/11 14:23:51;;;;;;;0.63;0.40;;;26.60;66.30;;;;;;5072617;28;20960;-60
2023/10/11 14:26:17;;;;;;;0.30;0.27;;;26.50;63.70;;;;;;5073135;28;20512;-65
2023/10/11 14:28:43;;;;;;;0.50;0.50;;;26.40;61.80;;;;;;5073178;28;20837;-63
2023/10/11 14:31:22;;;;;;;0.30;0.30;;;26.50;61.40;;;;;;5072912;28;20752;-65
2023/10/11 14:33:49;;;;;;;0.30;0.20;;;26.50;62.30;;;;;;5071488;28;20773;-62
2023/10/11 14:36:20;;;;;;;0.33;0.30;;;26.40;62.80;;;;;;5071604;28;20416;-66
2023/10/11 14:38:46;;;;;;;0.30;0.20;;;26.40;62.70;;;;;;5071766;28;20383;-65
2023/10/11 14:41:14;;;;;;;0.30;0.30;;;26.40;62.90;;;;;;5071744;28;20423;-66
2023/10/11 14:43:40;;;;;;;0.37;0.37;;;26.40;62.80;;;;;;5071346;28;20457;-62
2023/10/11 14:46:06;;;;;;;0.30;0.20;;;26.30;62.80;;;;;;5071823;28;20459;-64
2023/10/11 14:48:34;;;;;;;0.30;0.20;;;26.30;63.10;;;;;;5068663;28;20421;-61
2023/10/11 14:51:00;;;;;;;0.70;0.70;;;26.20;63.20;;;;;;5051849;28;20176;-61
2023/10/11 14:53:26;;;;;;;0.30;0.20;;;26.10;63.70;;;;;;5051614;28;20746;-61
2023/10/11 14:55:54;;;;;;;0.40;0.40;;;26.00;63.90;;;;;;5051469;28;20434;-68
2023/10/11 14:58:20;;;;;;;0.30;0.30;;;26.00;64.40;;;;;;5052312;28;20178;-63
2023/10/11 15:00:46;;;;;;;0.30;0.20;;;26.00;64.00;;;;;;5053505;28;20395;-62
2023/10/11 15:03:13;;;;;;;0.30;0.20;;;25.90;64.10;;;;;;5056500;28;20228;-64
2023/10/11 15:05:39;;;;;;;0.30;0.20;;;25.80;64.80;;;;;;5054956;28;20425;-64
2023/10/11 15:08:05;;;;;;;0.30;0.20;;;25.80;64.90;;;;;;5056886;28;20778;-65
2023/10/11 15:10:30;;;;;;;0.33;0.27;;;25.70;65.20;;;;;;5056737;28;20403;-63
2023/10/11 15:12:56;;;;;;;0.30;0.20;;;25.70;65.60;;;;;;5056652;28;20807;-67
2023/10/11 15:15:28;;;;;;;0.50;0.40;;;25.60;64.90;;;;;;5056049;28;20201;-62
2023/10/11 15:17:55;;;;;;;0.30;0.20;;;25.50;65.40;;;;;;5056726;28;20666;-63
2023/10/11 15:20:21;;;;;;;0.30;0.30;;;25.50;66.00;;;;;;5056520;28;20773;-62
2023/10/11 15:22:47;;;;;;;0.50;0.50;;;25.40;65.80;;;;;;5056087;28;20422;-66
2023/10/11 15:25:13;;;;;;;0.30;0.20;;;25.40;66.00;;;;;;5056059;28;20247;-66
2023/10/11 15:27:39;;;;;;;0.30;0.20;;;25.30;66.20;;;;;;5056422;28;20386;-66
2023/10/11 15:30:06;;;;;;;0.30;0.20;;;25.20;66.80;;;;;;5056304;28;20404;-65
2023/10/11 15:32:33;;;;;;;0.30;0.30;;;25.20;67.70;;;;;;5056366;28;20178;-66
2023/10/11 15:34:59;;;;;;;0.30;0.20;;;25.10;68.00;;;;;;5056058;28;20428;-66
2023/10/11 15:37:25;;;;;;;0.30;0.30;;;25.00;68.20;;;;;;5056060;28;20442;-64
2023/10/11 15:39:51;;;;;;;0.30;0.30;;;25.00;68.70;;;;;;5056271;28;20412;-61
2023/10/11 15:42:18;;;;;;;0.30;0.30;;;24.90;69.30;;;;;;5055823;28;20523;-65
2023/10/11 15:44:46;;;;;;;0.40;0.40;;;24.80;70.20;;;;;;5055506;28;20626;-64
2023/10/11 15:47:12;;;;;;;0.50;0.47;;;24.70;69.60;;;;;;5055773;28;20374;-63
2023/10/11 15:49:39;;;;;;;0.30;0.20;;;24.60;69.90;;;;;;5055862;28;20408;-67
2023/10/11 15:52:05;;;;;;;0.30;0.30;;;24.60;70.10;;;;;;5055778;28;20759;-62
2023/10/11 15:54:32;;;;;;;0.30;0.20;;;24.50;70.30;;;;;;5020662;28;20449;-64
2023/10/11 15:57:00;;;;;;;0.30;0.30;;;24.40;70.50;;;;;;5055679;28;20177;-63
2023/10/11 15:59:28;;;;;;;0.30;0.20;;;24.40;71.10;;;;;;5053972;28;20904;-67
2023/10/11 16:01:54;;;;;;;0.30;0.30;;;24.20;71.10;;;;;;5055308;28;20417;-64
2023/10/11 16:04:20;;;;;;;0.30;0.30;;;24.20;71.40;;;;;;5072206;28;20430;-62
2023/10/11 16:06:49;;;;;;;0.30;0.20;;;24.00;71.70;;;;;;5074754;28;20315;-62
2023/10/11 16:09:15;;;;;;;0.30;0.20;;;24.00;72.00;;;;;;5074640;28;20423;-67
2023/10/11 16:11:42;;;;;;;0.30;0.20;;;23.80;72.00;;;;;;5074650;28;20440;-65
2023/10/11 16:14:10;;;;;;;0.30;0.30;;;23.80;72.30;;;;;;5073414;28;20423;-62
2023/10/11 16:16:40;;;;;;;0.30;0.30;;;23.70;72.70;;;;;;5074430;28;20452;-62
2023/10/11 16:19:08;;;;;;;0.30;0.20;;;23.60;72.80;;;;;;5074583;28;20419;-66
2023/10/11 16:21:39;;;;;;;0.30;0.20;;;23.40;72.70;;;;;;5074660;28;20546;-67
2023/10/11 16:24:07;;;;;;;0.30;0.20;;;23.30;72.70;;;;;;5073958;28;20467;-65
2023/10/11 16:26:34;;;;;;;0.30;0.20;;;23.20;72.90;;;;;;5074597;28;20435;-66
2023/10/11 16:29:01;;;;;;;0.30;0.30;;;23.10;73.10;;;;;;5074914;28;20477;-61
2023/10/11 16:31:27;;;;;;;0.30;0.30;;;23.00;74.00;;;;;;5074397;28;20417;-64
2023/10/11 16:33:53;;;;;;;0.30;0.30;;;22.90;73.40;;;;;;5074207;28;20402;-65
2023/10/11 16:36:19;;;;;;;0.30;0.30;;;22.80;73.50;;;;;;5074803;28;20439;-62
2023/10/11 16:38:46;;;;;;;0.30;0.20;;;22.70;73.70;;;;;;5073966;28;20602;-64
2023/10/11 16:41:12;;;;;;;0.30;0.20;;;22.60;74.30;;;;;;5074149;28;20431;-65
2023/10/11 16:43:42;;;;;;;0.30;0.30;;;22.50;74.30;;;;;;5074214;28;20545;-62
2023/10/11 16:46:11;;;;;;;0.30;0.30;;;22.40;74.40;;;;;;5073981;28;20391;-64
2023/10/11 16:48:38;;;;;;;0.30;0.20;;;22.30;75.20;;;;;;5073112;28;20939;-63
2023/10/11 16:51:09;;;;;;;0.30;0.20;;;22.20;75.80;;;;;;5074375;28;20378;-63
2023/10/11 16:53:35;;;;;;;0.30;0.23;;;22.20;76.00;;;;;;5073703;28;20499;-60
2023/10/11 16:56:11;;;;;;;0.30;0.20;;;22.10;76.30;;;;;;5073510;28;20581;-62
2023/10/11 16:58:41;;;;;;;0.40;0.40;;;22.00;77.20;;;;;;5074370;28;20403;-59
2023/10/11 17:01:07;;;;;;;0.30;0.20;;;21.90;78.50;;;;;;5073040;28;20481;-62
2023/10/11 17:03:33;;;;;;;0.30;0.20;;;21.80;79.50;;;;;;5073896;28;20783;-60
2023/10/11 17:05:59;;;;;;;0.30;0.30;;;21.70;79.40;;;;;;5068062;28;20474;-61
2023/10/11 17:08:28;;;;;;;0.60;0.60;;;21.60;79.00;;;;;;5069258;28;20174;-63
2023/10/11 17:10:59;;;;;;;0.30;0.30;;;21.60;80.50;;;;;;5072820;28;20411;-63
2023/10/11 17:13:27;;;;;;;0.30;0.20;;;21.50;80.90;;;;;;5069660;28;20378;-60
2023/10/11 17:15:56;;;;;;;0.60;0.60;;;21.40;80.50;;;;;;5071483;28;20754;-60
2023/10/11 17:18:24;;;;;;;0.47;0.47;;;21.30;80.30;;;;;;5070553;28;20458;-61
2023/10/11 17:20:52;;;;;;;0.30;0.30;;;21.20;79.80;;;;;;5072523;28;20422;-60
2023/10/11 17:23:32;;;;;;;0.30;0.20;;;21.20;80.90;;;;;;5072855;28;20483;-61
2023/10/11 17:26:12;;;;;;;0.30;0.30;;;21.10;82.20;;;;;;5072475;28;20931;-62
2023/10/11 17:28:41;;;;;;;0.30;0.30;;;20.90;83.80;;;;;;5056276;28;20431;-62
2023/10/11 17:31:09;;;;;;;0.30;0.30;;;20.80;84.80;;;;;;5073149;28;20552;-62
2023/10/11 17:33:35;;;;;;;0.57;0.57;;;20.70;85.80;;;;;;5069101;28;20430;-61
2023/10/11 17:36:01;;;;;;;0.30;0.30;;;20.60;86.10;;;;;;5067566;28;21018;-60
2023/10/11 17:38:27;;;;;;;0.30;0.30;;;20.50;87.20;;;;;;5073266;28;20225;-60
2023/10/11 17:40:53;;;;;;;0.30;0.30;;;20.30;88.20;;;;;;5073274;28;20510;-61
2023/10/11 17:43:21;;;;;;;0.37;0.37;;;20.20;88.50;;;;;;5055392;28;20193;-61
2023/10/11 17:45:46;;;;;;;0.30;0.30;;;20.10;89.40;;;;;;5072130;28;20303;-61
2023/10/11 17:48:13;;;;;;;0.30;0.30;;;20.00;89.70;;;;;;5072481;28;20496;-61
2023/10/11 17:50:39;;;;;;;0.30;0.20;;;19.90;90.10;;;;;;5070712;28;20177;-61
2023/10/11 17:53:05;;;;;;;0.30;0.30;;;19.70;90.40;;;;;;5070094;28;20411;-62
2023/10/11 17:55:31;;;;;;;0.30;0.20;;;19.70;90.70;;;;;;5068878;28;20450;-62
2023/10/11 17:57:57;;;;;;;0.30;0.30;;;19.60;90.80;;;;;;5072364;28;20203;-62
2023/10/11 18:00:26;;;;;;;0.67;0.67;;;19.50;90.90;;;;;;5072436;28;20176;-62
2023/10/11 18:02:52;;;;;;;0.30;0.20;;;19.40;91.50;;;;;;5072423;28;20188;-63
2023/10/11 18:05:18;;;;;;;0.50;0.50;;;19.40;91.90;;;;;;5072047;28;20431;-61